Time;durP1;ratioP1;P1;durP2;ratioP2;P2;SDS_P1;SDS_P2;PMS_P1;PMS_P2;Temp;Humidity;BMP_temperature;BMP_pressure;BME280_temperature;BME280_humidity;BME280_pressure;Samples;Min_cycle;Max_cycle;Signal;HPM_P1;HPM_P2
2024/03/27 12:31:51;;;;;;;;;;;;;;;;;;6182655;22;20261;-87
2024/03/27 12:34:16;;;;;;;;;;;;;;;;;;6247348;23;19990;-86
2024/03/27 12:36:42;;;;;;;;;;;;;;;;;;6247006;23;19986;-86
2024/03/27 12:39:08;;;;;;;;;;;;;;;;;;6247162;23;20315;-91
2024/03/27 12:41:34;;;;;;;;;;;;;;;;;;6247424;23;19922;-88
2024/03/27 12:43:59;;;;;;;;;;;;;;;;;;6221079;23;19915;-86
2024/03/27 12:46:24;;;;;;;;;;;;;;;;;;6247627;23;19911;-86
2024/03/27 17:25:14;;;;;;;7.20;6.05;;;;;;;;;;6222706;22;20024;-88
2024/03/27 17:27:40;;;;;;;6.68;5.00;;;;;;;;;;6246456;23;20372;-90
2024/03/27 17:30:06;;;;;;;9.07;5.07;;;;;;;;;;6220777;23;20450;-89
2024/03/27 17:32:31;;;;;;;6.18;5.57;;;;;;;;;;6221040;23;20423;-88
2024/03/27 17:34:57;;;;;;;5.35;4.85;;;;;;;;;;6247094;23;20007;-89
2024/03/27 17:37:23;;;;;;;6.68;5.35;;;;;;;;;;6221543;23;20008;-88
2024/03/27 17:39:48;;;;;;;5.82;4.72;;;;;;;;;;6222015;23;20012;-88
2024/03/27 17:42:14;;;;;;;7.68;6.15;;;;;;;;;;6222156;23;20004;-90
2024/03/27 17:44:39;;;;;;;5.65;5.10;;;;;;;;;;6221961;23;20027;-91
2024/03/27 17:47:05;;;;;;;5.40;4.57;;;;;;;;;;6235442;23;20073;-91
2024/03/27 17:49:32;;;;;;;5.53;4.88;;;;;;;;;;6240682;23;20015;-93
2024/03/27 17:52:02;;;;;;;5.85;5.05;;;;;;;;;;6230120;23;20346;-92
2024/03/27 17:54:28;;;;;;;5.28;4.78;;;;;;;;;;6230736;23;20027;-92
2024/03/27 17:56:54;;;;;;;5.00;4.45;;;;;;;;;;6209509;23;20015;-93
2024/03/27 17:59:23;;;;;;;5.72;5.20;;;;;;;;;;6229854;23;20015;-91
2024/03/27 18:01:48;;;;;;;5.95;5.35;;;;;;;;;;6229126;23;20343;-93
2024/03/27 18:04:20;;;;;;;5.43;4.70;;;;;;;;;;6234439;23;20004;-90
2024/03/27 18:06:46;;;;;;;5.30;4.13;;;;;;;;;;6234139;23;20004;-91
2024/03/27 18:09:14;;;;;;;5.13;4.18;;;;;;;;;;6231037;23;20039;-93
2024/03/27 18:11:40;;;;;;;5.80;4.53;;;;;;;;;;6259751;23;20004;-91
2024/03/27 18:14:08;;;;;;;6.45;5.82;;;;;;;;;;6221812;23;20035;-93
2024/03/27 18:16:34;;;;;;;7.25;5.07;;;;;;;;;;6222411;23;20422;-92
2024/03/27 18:18:59;;;;;;;5.18;4.57;;;;;;;;;;6222406;23;20066;-91
2024/03/27 18:21:25;;;;;;;7.10;5.18;;;;;;;;;;6222455;23;20054;-90
2024/03/27 18:23:50;;;;;;;6.07;4.25;;;;;;;;;;6224491;23;20305;-92
2024/03/27 18:26:16;;;;;;;4.95;4.30;;;;;;;;;;6225947;23;20019;-92
2024/03/27 18:28:42;;;;;;;5.68;5.07;;;;;;;;;;6222224;23;20495;-93
2024/03/27 18:31:07;;;;;;;8.40;6.15;;;;;;;;;;6221237;23;20005;-91
2024/03/27 18:33:33;;;;;;;13.55;8.02;;;;;;;;;;6221639;23;20386;-91
2024/03/27 18:35:58;;;;;;;9.23;6.68;;;;;;;;;;6221621;23;20004;-93
2024/03/27 18:38:24;;;;;;;8.18;5.47;;;;;;;;;;6223593;23;20446;-95
2024/03/27 18:40:56;;;;;;;5.93;5.30;;;;;;;;;;6202398;23;20415;-95
2024/03/27 18:43:22;;;;;;;8.63;7.05;;;;;;;;;;6231602;23;20035;-95
2024/03/27 18:45:47;;;;;;;9.07;7.43;;;;;;;;;;6238847;23;20004;-92
2024/03/27 18:48:14;;;;;;;6.90;5.93;;;;;;;;;;6236380;23;20004;-93
2024/03/27 18:50:42;;;;;;;8.32;6.30;;;;;;;;;;6233347;23;20019;-91
2024/03/27 18:53:09;;;;;;;9.43;5.97;;;;;;;;;;6235757;23;20024;-93
2024/03/27 18:55:35;;;;;;;8.80;6.35;;;;;;;;;;6231645;23;20371;-94
2024/03/27 18:58:02;;;;;;;7.57;5.93;;;;;;;;;;6230572;23;20483;-92
2024/03/27 19:00:29;;;;;;;8.45;6.78;;;;;;;;;;6230418;23;20008;-92
2024/03/27 19:02:55;;;;;;;10.90;7.13;;;;;;;;;;6228973;23;20534;-93
2024/03/27 19:05:21;;;;;;;8.35;6.65;;;;;;;;;;6227756;23;20005;-94
2024/03/27 19:07:47;;;;;;;8.02;7.00;;;;;;;;;;6231232;23;20446;-93
2024/03/27 19:10:12;;;;;;;8.85;7.07;;;;;;;;;;6228768;23;20012;-94
2024/03/27 19:12:41;;;;;;;9.55;7.78;;;;;;;;;;6258032;23;20008;-93
2024/03/27 19:15:07;;;;;;;8.63;6.82;;;;;;;;;;6223699;23;20004;-94
2024/03/27 19:17:33;;;;;;;9.10;7.03;;;;;;;;;;6227809;23;20004;-92
2024/03/27 19:19:59;;;;;;;8.65;7.22;;;;;;;;;;6228730;23;20020;-93
2024/03/27 19:22:25;;;;;;;17.40;12.85;;;;;;;;;;6224487;23;20008;-94
2024/03/27 19:24:54;;;;;;;19.45;13.27;;;;;;;;;;6224559;23;20055;-95
2024/03/27 19:27:20;;;;;;;15.98;10.75;;;;;;;;;;6224910;23;20020;-94
2024/03/27 19:29:45;;;;;;;19.02;13.07;;;;;;;;;;6224330;23;20062;-95
2024/03/27 19:32:11;;;;;;;9.48;7.43;;;;;;;;;;6234303;23;20450;-96
2024/03/27 19:34:37;;;;;;;9.57;6.68;;;;;;;;;;6246694;22;19984;-93
2024/03/27 19:37:05;;;;;;;6.90;6.20;;;;;;;;;;6249913;22;20012;-95
2024/03/27 19:39:31;;;;;;;9.10;5.95;;;;;;;;;;6247010;23;20012;-94
2024/03/27 19:42:00;;;;;;;7.30;6.18;;;;;;;;;;6208049;23;20010;-94
2024/03/27 19:44:25;;;;;;;7.85;5.97;;;;;;;;;;6232667;23;20091;-93
2024/03/27 19:46:59;;;;;;;7.25;5.35;;;;;;;;;;6235648;23;20099;-93
2024/03/27 19:49:36;;;;;;;6.80;6.10;;;;;;;;;;6175575;23;20090;-93
2024/03/27 19:52:04;;;;;;;7.00;5.68;;;;;;;;;;6178080;23;20459;-93
2024/03/27 19:54:31;;;;;;;6.20;5.35;;;;;;;;;;6179681;23;20009;-92
2024/03/27 20:02:08;;;;;;;6.20;5.25;;;;;;;;;;6213053;22;20029;-91
2024/03/27 20:04:40;;;;;;;6.07;5.20;;;;;;;;;;6208473;23;20085;-91
2024/03/27 20:07:07;;;;;;;6.45;5.38;;;;;;;;;;6205358;23;20037;-91
2024/03/27 20:09:42;;;;;;;7.15;5.90;;;;;;;;;;6207287;23;20012;-91
2024/03/27 20:12:09;;;;;;;7.45;5.55;;;;;;;;;;6205892;23;20017;-92
2024/03/27 20:14:36;;;;;;;6.70;5.00;;;;;;;;;;6207211;23;20008;-91
2024/03/27 20:17:04;;;;;;;5.78;5.00;;;;;;;;;;6205279;23;20033;-93
2024/03/27 20:19:32;;;;;;;12.30;10.52;;;;;;;;;;6202842;23;20008;-92
2024/03/27 20:21:58;;;;;;;8.70;7.43;;;;;;;;;;6204131;23;20058;-91
2024/03/27 20:24:25;;;;;;;5.65;5.03;;;;;;;;;;6201168;23;20008;-91
2024/03/27 20:26:52;;;;;;;5.50;4.43;;;;;;;;;;6177696;23;20099;-94
2024/03/27 20:29:43;;;;;;;5.13;4.13;;;;;;;;;;6207759;23;19992;-93
2024/03/27 20:32:18;;;;;;;7.53;4.68;;;;;;;;;;6191127;23;20008;-93
2024/03/27 20:34:45;;;;;;;6.32;4.47;;;;;;;;;;6227601;23;20000;-93
2024/03/27 20:37:11;;;;;;;6.05;4.50;;;;;;;;;;6237362;23;20005;-92
2024/03/27 20:39:38;;;;;;;6.03;4.88;;;;;;;;;;6209332;23;20015;-91
2024/03/27 20:42:08;;;;;;;4.82;4.32;;;;;;;;;;6210865;23;19993;-92
2024/03/27 20:44:34;;;;;;;5.40;4.60;;;;;;;;;;6210200;23;19985;-93
2024/03/27 20:47:00;;;;;;;8.65;5.20;;;;;;;;;;6177051;23;20324;-92
2024/03/27 20:49:27;;;;;;;8.10;5.20;;;;;;;;;;6220297;23;20025;-91
2024/03/27 20:51:55;;;;;;;6.43;4.78;;;;;;;;;;6223195;23;20017;-91
2024/03/27 20:54:22;;;;;;;7.55;5.05;;;;;;;;;;6193213;23;20084;-92
2024/03/27 20:56:49;;;;;;;7.05;5.22;;;;;;;;;;6192305;23;20009;-92
2024/03/27 20:59:14;;;;;;;6.50;5.68;;;;;;;;;;6188604;23;20013;-94
2024/03/27 21:01:41;;;;;;;8.25;6.15;;;;;;;;;;6195611;23;20005;-92
2024/03/27 21:04:17;;;;;;;4.85;3.95;;;;;;;;;;6192388;23;20365;-91
2024/03/27 21:06:45;;;;;;;5.60;4.03;;;;;;;;;;6208285;23;20001;-91
2024/03/27 21:09:11;;;;;;;5.20;4.20;;;;;;;;;;6189367;23;20005;-92
2024/03/27 21:11:45;;;;;;;7.82;4.20;;;;;;;;;;6193195;23;20045;-91
2024/03/27 21:14:10;;;;;;;6.20;3.65;;;;;;;;;;6194827;23;20009;-91
2024/03/27 21:16:44;;;;;;;5.43;4.03;;;;;;;;;;6197856;23;20008;-93
2024/03/27 21:19:18;;;;;;;3.67;2.85;;;;;;;;;;6209905;23;20009;-93
2024/03/27 21:21:44;;;;;;;3.67;3.25;;;;;;;;;;6173136;23;20023;-93
2024/03/27 21:24:10;;;;;;;3.83;3.42;;;;;;;;;;6167087;23;20009;-94
2024/03/27 21:26:36;;;;;;;4.60;3.63;;;;;;;;;;6195215;23;20005;-96
2024/03/27 21:29:03;;;;;;;3.63;2.92;;;;;;;;;;6195899;23;20017;-93
2024/03/27 21:31:31;;;;;;;3.97;3.50;;;;;;;;;;6192774;23;20051;-91
2024/03/27 21:33:57;;;;;;;3.92;3.47;;;;;;;;;;6163770;23;20086;-92
2024/03/27 21:36:23;;;;;;;3.90;3.50;;;;;;;;;;6198417;23;20032;-92
2024/03/27 21:38:49;;;;;;;4.63;3.67;;;;;;;;;;6190622;23;20021;-91
2024/03/27 21:41:14;;;;;;;4.72;4.00;;;;;;;;;;6199740;23;20028;-92
2024/03/27 21:43:41;;;;;;;4.05;3.38;;;;;;;;;;6194953;23;20008;-93
2024/03/27 21:46:06;;;;;;;5.38;3.78;;;;;;;;;;6229351;23;19997;-92
2024/03/27 21:48:32;;;;;;;4.75;3.63;;;;;;;;;;6192237;23;20009;-93
2024/03/27 21:51:01;;;;;;;4.75;3.60;;;;;;;;;;6200503;23;20331;-92
2024/03/27 21:53:27;;;;;;;6.57;3.80;;;;;;;;;;6169055;23;20012;-91
2024/03/27 21:55:59;;;;;;;4.60;4.07;;;;;;;;;;6195812;23;20005;-92
2024/03/27 21:58:26;;;;;;;5.95;4.32;;;;;;;;;;6223079;23;20005;-91
2024/03/27 22:00:51;;;;;;;4.07;3.63;;;;;;;;;;6205518;23;20001;-93
2024/03/27 22:03:18;;;;;;;4.65;4.15;;;;;;;;;;6193425;23;20005;-92
2024/03/27 22:05:45;;;;;;;4.68;3.90;;;;;;;;;;6203897;23;19996;-93
2024/03/27 22:08:10;;;;;;;5.30;3.83;;;;;;;;;;6192336;23;20005;-91
2024/03/27 22:10:37;;;;;;;5.63;4.25;;;;;;;;;;6193309;23;20043;-93
2024/03/27 22:15:32;;;;;;;5.20;3.83;;;;;;;;;;6226797;23;20027;-94
2024/03/27 22:17:58;;;;;;;4.40;4.00;;;;;;;;;;6222486;23;20103;-93
2024/03/27 22:20:24;;;;;;;4.38;3.60;;;;;;;;;;6224183;23;20005;-92
2024/03/27 22:22:50;;;;;;;4.75;3.53;;;;;;;;;;6211596;23;20010;-93
2024/03/27 22:25:18;;;;;;;4.32;3.78;;;;;;;;;;6243008;23;20004;-94
2024/03/27 22:27:46;;;;;;;5.93;4.57;;;;;;;;;;6225110;22;20012;-93
2024/03/27 22:30:13;;;;;;;6.00;4.13;;;;;;;;;;6224313;23;20023;-93
2024/03/27 22:32:43;;;;;;;5.00;4.50;;;;;;;;;;6194904;23;20090;-93
2024/03/27 22:35:08;;;;;;;4.93;4.43;;;;;;;;;;6199422;23;20009;-94
2024/03/27 22:37:37;;;;;;;5.10;4.28;;;;;;;;;;6198242;22;20501;-94
2024/03/27 22:40:04;;;;;;;5.45;4.40;;;;;;;;;;6226699;23;20439;-93
2024/03/27 22:42:42;;;;;;;6.75;4.70;;;;;;;;;;6228149;23;20340;-94
2024/03/27 22:45:16;;;;;;;5.43;4.35;;;;;;;;;;6233673;22;20024;-94
2024/03/27 22:47:46;;;;;;;7.57;5.28;;;;;;;;;;6228954;23;20016;-94
2024/03/27 22:50:30;;;;;;;6.57;5.00;;;;;;;;;;6231045;23;20095;-94
2024/03/27 22:52:57;;;;;;;6.13;4.93;;;;;;;;;;6260895;22;20138;-94
2024/03/27 22:55:22;;;;;;;6.18;4.78;;;;;;;;;;6205588;23;20017;-95
2024/03/27 22:57:49;;;;;;;6.60;5.00;;;;;;;;;;6231461;23;19988;-94
2024/03/27 23:00:30;;;;;;;5.13;4.30;;;;;;;;;;6200993;23;20008;-94
2024/03/27 23:02:55;;;;;;;5.82;4.00;;;;;;;;;;6198313;23;20454;-94
2024/03/27 23:05:25;;;;;;;6.97;5.75;;;;;;;;;;6183216;23;20012;-94
2024/03/27 23:07:52;;;;;;;7.18;5.15;;;;;;;;;;6230084;22;20016;-93
2024/03/27 23:10:17;;;;;;;9.73;4.90;;;;;;;;;;6229335;22;19993;-95
2024/03/27 23:12:44;;;;;;;6.43;5.30;;;;;;;;;;6198989;23;20035;-93
2024/03/27 23:15:10;;;;;;;8.65;5.55;;;;;;;;;;6195733;23;20011;-93
2024/03/27 23:17:36;;;;;;;7.30;6.00;;;;;;;;;;6198399;23;20001;-93
2024/03/27 23:20:02;;;;;;;5.95;4.75;;;;;;;;;;6196080;23;20012;-93
2024/03/27 23:22:27;;;;;;;9.55;6.72;;;;;;;;;;6195153;23;20005;-92
2024/03/27 23:24:53;;;;;;;9.77;6.95;;;;;;;;;;6196819;23;20008;-93
2024/03/27 23:27:19;;;;;;;9.10;7.13;;;;;;;;;;6173738;23;20011;-92
2024/03/27 23:29:49;;;;;;;11.32;8.43;;;;;;;;;;6203833;23;20443;-93
2024/03/27 23:32:17;;;;;;;12.50;8.93;;;;;;;;;;6202889;23;20039;-94
2024/03/27 23:34:43;;;;;;;9.52;7.15;;;;;;;;;;6231934;22;20063;-92
2024/03/27 23:37:08;;;;;;;9.43;7.68;;;;;;;;;;6212383;23;20012;-92
2024/03/27 23:39:34;;;;;;;12.38;8.77;;;;;;;;;;6218384;23;20000;-92
2024/03/27 23:41:59;;;;;;;11.25;7.47;;;;;;;;;;6213540;23;20064;-92
2024/03/27 23:44:25;;;;;;;11.20;7.72;;;;;;;;;;6199004;23;20032;-93
